Brixworth, United Kingdom
Current Conditions -  °F | °C
As of 1:50 AM on Thursday 23 Oct 2014 (Local Time) from EGBE Reporting Station
Scattered Clouds Scattered Clouds  
Wind Chill: 11°   Ceiling: Unl
Heat Index: 11°   Visibility: 6mi
Dew Point:   Wind: 9mph
Humidity: 88%   Direction: 220°SW
Pressure: 30.12"   Gusts: NA
Location:  52.33°N, 0.9°W
Report Text: EGBE 230050Z 22008KT 9999 SCT026 11/09 Q1020
Loading
Personal Weather Stations






























Interactive Weather Map
Tropical Storm Tracking
New forecast layout! Learn more

10-Day Weather Forecast

Advertisements
Track Severe Weather on mobile